Terminal Aerodrome Forecast
Issued by NWS Amarillo, TX

Home | Current Version | Previous Version | Text Only | Print | Product List | Glossary On
Versions: 1 2 3 4 5 6 7 8 9 10 11 12 13 14
604
FTUS44 KAMA 030528
TAFAMA
TAF
KAMA 030528Z 0306/0406 04013KT 3SM -RASN BR OVC005
     FM030800 03011KT 1SM -RASN BR OVC004
     FM031800 03006KT 2SM -RA BR OVC004
     FM040000 03005KT 2SM BR OVC003=

USA.gov is the U.S. government's official web portal to all federal, state and local government web resources and services.